Time;durP1;ratioP1;P1;durP2;ratioP2;P2;SDS_P1;SDS_P2;PMS_P1;PMS_P2;Temp;Humidity;BMP_temperature;BMP_pressure;BME280_temperature;BME280_humidity;BME280_pressure;Samples;Min_cycle;Max_cycle;Signal;HPM_P1;HPM_P2
2023/06/21 00:00:38;;;;;;;3.37;1.87;;;;;;;21.86;83.81;98622.19;5134871;27;40616;-81
2023/06/21 00:03:07;;;;;;;2.30;1.67;;;;;;;21.82;85.15;98621.69;5151423;27;42942;-80
2023/06/21 00:05:37;;;;;;;2.80;1.93;;;;;;;21.79;84.23;98619.31;5154321;27;42336;-80
2023/06/21 00:08:05;;;;;;;2.00;1.40;;;;;;;21.66;84.77;98589.38;5139058;27;39210;-80
2023/06/21 00:10:33;;;;;;;2.93;1.70;;;;;;;21.76;84.54;98614.25;5138434;27;41742;-80
2023/06/21 00:13:01;;;;;;;1.90;1.50;;;;;;;21.63;84.13;98600.50;5155552;27;41544;-80
2023/06/21 00:15:28;;;;;;;1.90;1.73;;;;;;;21.71;83.95;98622.03;5138267;27;42208;-80
2023/06/21 00:17:56;;;;;;;2.23;1.33;;;;;;;21.69;84.06;98624.06;5155481;27;40064;-80
2023/06/21 00:20:25;;;;;;;2.23;1.40;;;;;;;21.66;83.90;98624.41;5155109;27;40631;-80
2023/06/21 00:22:55;;;;;;;2.10;1.50;;;;;;;21.64;84.03;98620.19;5138099;27;41768;-80
2023/06/21 00:25:24;;;;;;;1.70;1.30;;;;;;;21.62;84.05;98625.78;5137954;27;42535;-81
2023/06/21 00:27:52;;;;;;;3.83;2.07;;;;;;;21.60;83.76;98635.88;5138323;27;40297;-80
2023/06/21 00:30:19;;;;;;;2.97;1.60;;;;;;;21.58;83.55;98624.44;5155614;27;42453;-80
2023/06/21 00:32:47;;;;;;;4.03;2.17;;;;;;;21.57;83.14;98636.22;5155363;27;42571;-80
2023/06/21 00:35:15;;;;;;;4.90;2.07;;;;;;;21.38;83.28;98615.03;5138803;27;40941;-80
2023/06/21 00:37:45;;;;;;;2.60;1.80;;;;;;;21.51;83.24;98632.34;5156376;27;38848;-80
2023/06/21 00:40:13;;;;;;;3.03;1.60;;;;;;;21.48;82.99;98642.63;5156421;27;41052;-80
2023/06/21 00:42:41;;;;;;;2.53;1.63;;;;;;;21.46;83.47;98644.66;5139047;27;41723;-80
2023/06/21 00:45:15;;;;;;;4.07;2.03;;;;;;;21.39;84.70;98632.84;5155916;27;41166;-80
2023/06/21 00:47:43;;;;;;;2.60;1.60;;;;;;;21.40;84.74;98646.16;5153383;27;42088;-80
2023/06/21 00:50:12;;;;;;;4.27;1.73;;;;;;;21.40;84.54;98651.53;5156562;27;41325;-80
2023/06/21 00:52:42;;;;;;;3.57;2.20;;;;;;;21.10;85.00;98607.28;5138895;27;42921;-80
2023/06/21 00:55:13;;;;;;;4.13;2.50;;;;;;;21.26;85.87;98632.56;5175079;27;41152;-80
2023/06/21 00:57:44;;;;;;;2.20;1.97;;;;;;;21.33;85.72;98641.63;5139604;27;39274;-80
2023/06/21 01:00:17;;;;;;;3.17;2.10;;;;;;;21.25;85.85;98634.41;5156214;27;42424;-80
2023/06/21 01:02:46;;;;;;;3.90;2.40;;;;;;;21.35;86.76;98653.09;5137157;27;44111;-80
2023/06/21 01:05:16;;;;;;;2.00;1.80;;;;;;;21.34;86.64;98654.09;5154919;27;42155;-80
2023/06/21 01:07:55;;;;;;;2.40;1.97;;;;;;;21.32;86.64;98656.94;5155146;27;40118;-80
2023/06/21 01:10:36;;;;;;;2.73;2.10;;;;;;;21.32;86.47;98658.81;5151805;27;42400;-80
2023/06/21 01:13:15;;;;;;;2.77;1.80;;;;;;;21.30;86.47;98656.28;5155896;27;41898;-79
2023/06/21 01:15:47;;;;;;;2.70;1.80;;;;;;;21.27;86.34;98653.91;5140853;27;42639;-80
2023/06/21 01:18:16;;;;;;;2.83;1.90;;;;;;;21.26;86.18;98648.72;5141118;27;39177;-80
2023/06/21 01:20:50;;;;;;;3.20;2.63;;;;;;;21.25;86.55;98649.72;5158365;27;41484;-80
2023/06/21 01:23:29;;;;;;;3.13;2.17;;;;;;;20.98;87.21;98615.84;5155755;27;42767;-80
2023/06/21 01:26:11;;;;;;;3.87;3.07;;;;;;;21.23;87.55;98666.03;5156121;27;42261;-80
2023/06/21 01:28:50;;;;;;;3.63;3.07;;;;;;;21.22;87.84;98676.97;5141686;27;38884;-80
2023/06/21 01:31:21;;;;;;;4.13;2.63;;;;;;;21.00;87.66;98648.84;5156330;27;41939;-80
2023/06/21 01:33:51;;;;;;;7.90;3.43;;;;;;;21.22;87.16;98682.38;5141931;27;41870;-80
2023/06/21 01:36:19;;;;;;;3.77;2.80;;;;;;;21.22;88.32;98685.91;5158853;27;42499;-79
2023/06/21 01:38:47;;;;;;;3.50;2.50;;;;;;;21.11;88.21;98673.59;5142188;27;39713;-80
2023/06/21 01:41:15;;;;;;;3.67;2.50;;;;;;;21.21;87.94;98694.16;5141836;27;41674;-80
2023/06/21 01:43:43;;;;;;;4.77;2.77;;;;;;;21.21;87.73;98683.38;5141884;27;42862;-80
2023/06/21 01:46:13;;;;;;;3.80;2.60;;;;;;;21.13;88.75;98671.56;5141540;27;41375;-79
2023/06/21 01:48:44;;;;;;;3.97;2.80;;;;;;;21.16;87.89;98676.59;5141866;27;39595;-80
2023/06/21 01:51:14;;;;;;;2.60;2.37;;;;;;;21.20;87.60;98684.38;5141549;27;41042;-79
2023/06/21 01:53:44;;;;;;;3.13;2.70;;;;;;;21.14;88.09;98670.53;5141754;27;41885;-80
2023/06/21 01:56:17;;;;;;;4.50;3.27;;;;;;;21.15;87.92;98669.53;5158625;27;42277;-79
2023/06/21 01:58:46;;;;;;;5.13;2.70;;;;;;;21.10;87.77;98669.22;5155760;27;40771;-80
2023/06/21 02:01:15;;;;;;;5.03;2.57;;;;;;;21.13;87.38;98676.97;5141429;27;40630;-79
2023/06/21 02:03:50;;;;;;;3.13;2.23;;;;;;;21.09;87.25;98674.75;5141709;27;43021;-79
2023/06/21 02:06:20;;;;;;;2.67;2.37;;;;;;;21.00;87.26;98665.84;5140776;27;42402;-80
2023/06/21 02:08:49;;;;;;;2.90;2.67;;;;;;;21.09;87.43;98680.13;5141278;27;38946;-79
2023/06/21 02:11:19;;;;;;;4.30;2.53;;;;;;;21.08;87.40;98687.38;5156374;27;42706;-79
2023/06/21 02:13:48;;;;;;;4.53;2.50;;;;;;;21.06;87.13;98686.69;5157231;27;42668;-80
2023/06/21 02:16:17;;;;;;;3.23;2.57;;;;;;;21.05;86.95;98687.69;5140040;27;42114;-80
2023/06/21 02:18:48;;;;;;;3.80;2.30;;;;;;;20.91;86.92;98661.41;5140134;27;39165;-80
2023/06/21 02:21:15;;;;;;;3.17;2.70;;;;;;;21.03;87.08;98687.03;5157033;27;42361;-79
2023/06/21 02:23:43;;;;;;;3.30;2.47;;;;;;;20.99;86.76;98685.69;5139755;27;41480;-80
2023/06/21 02:26:11;;;;;;;2.23;2.03;;;;;;;20.97;86.61;98674.25;5139010;27;41180;-79
2023/06/21 02:28:39;;;;;;;4.73;2.90;;;;;;;20.67;86.62;98631.78;5157411;27;41048;-80
2023/06/21 02:31:09;;;;;;;3.40;2.10;;;;;;;20.91;86.94;98682.97;5156990;27;41936;-79
2023/06/21 02:33:37;;;;;;;3.43;2.70;;;;;;;20.90;86.83;98683.97;5140111;27;42862;-79
2023/06/21 02:36:07;;;;;;;2.87;2.57;;;;;;;20.87;86.60;98678.94;5158219;27;41411;-80
2023/06/21 02:38:35;;;;;;;3.60;2.07;;;;;;;20.87;86.74;98688.84;5141041;27;39939;-79
2023/06/21 02:41:03;;;;;;;3.43;2.67;;;;;;;20.85;86.57;98699.78;5140542;27;42141;-80
2023/06/21 02:43:31;;;;;;;4.00;2.77;;;;;;;20.84;87.06;98690.03;5158452;27;42718;-79
2023/06/21 02:46:00;;;;;;;3.43;3.10;;;;;;;20.85;86.80;98691.72;5157532;27;42272;-79
2023/06/21 02:48:28;;;;;;;4.60;3.07;;;;;;;20.84;86.97;98689.19;5140757;27;38578;-79
2023/06/21 02:50:56;;;;;;;3.27;2.90;;;;;;;20.83;86.55;98691.03;5140230;27;41648;-80
2023/06/21 02:53:27;;;;;;;3.10;2.90;;;;;;;20.83;86.82;98696.41;5140650;27;41765;-79
2023/06/21 02:55:54;;;;;;;3.37;3.00;;;;;;;20.77;86.76;98697.09;5174085;27;43310;-79
2023/06/21 02:58:22;;;;;;;3.00;2.17;;;;;;;20.58;86.69;98665.06;5140749;27;40025;-79
2023/06/21 03:00:50;;;;;;;3.10;2.80;;;;;;;20.74;86.28;98702.78;5140498;27;40599;-79
2023/06/21 03:03:18;;;;;;;3.53;3.23;;;;;;;20.75;86.66;98709.84;5156026;27;42883;-80
2023/06/21 03:05:46;;;;;;;4.23;3.67;;;;;;;20.75;86.94;98720.63;5155564;27;42037;-79
2023/06/21 03:08:14;;;;;;;4.73;3.50;;;;;;;20.73;86.92;98725.31;5153803;27;40020;-80
2023/06/21 03:10:45;;;;;;;4.97;3.53;;;;;;;20.68;86.99;98719.56;5156435;27;42302;-79
2023/06/21 03:13:13;;;;;;;5.17;4.10;;;;;;;20.71;87.96;98728.19;5138943;27;41779;-79
2023/06/21 03:15:40;;;;;;;4.93;3.97;;;;;;;20.71;87.52;98727.31;5155851;27;43024;-79
2023/06/21 03:18:08;;;;;;;5.70;4.60;;;;;;;20.68;87.86;98723.09;5156695;27;40969;-80
2023/06/21 03:20:36;;;;;;;4.20;3.80;;;;;;;20.72;87.67;98731.72;5139048;27;42153;-80
2023/06/21 03:23:04;;;;;;;5.17;3.67;;;;;;;20.64;88.08;98712.84;5156677;27;42656;-80
2023/06/21 03:25:32;;;;;;;4.83;4.00;;;;;;;20.68;87.75;98724.97;5155948;27;42925;-79
2023/06/21 03:28:02;;;;;;;4.43;3.90;;;;;;;20.73;87.95;98725.31;5138848;27;40043;-80
2023/06/21 03:30:31;;;;;;;4.07;3.70;;;;;;;20.73;87.95;98722.63;5138654;27;40780;-80
2023/06/21 03:33:00;;;;;;;6.90;4.90;;;;;;;20.46;87.49;98677.13;5156784;27;43504;-80
2023/06/21 03:35:29;;;;;;;5.03;4.17;;;;;;;20.69;87.75;98716.72;5156760;27;42312;-80
2023/06/21 03:37:57;;;;;;;5.50;5.00;;;;;;;20.82;87.48;98737.78;5139957;27;39324;-79
2023/06/21 03:40:32;;;;;;;5.47;4.67;;;;;;;20.85;87.50;98750.09;5139224;27;40558;-79
2023/06/21 03:43:01;;;;;;;5.97;4.93;;;;;;;20.87;87.22;98751.63;5175728;27;43380;-79
2023/06/21 03:45:30;;;;;;;4.23;3.80;;;;;;;20.91;87.14;98758.34;5156777;27;43067;-79
2023/06/21 03:48:04;;;;;;;4.50;4.00;;;;;;;20.94;86.80;98763.41;5139787;27;39183;-79
2023/06/21 03:50:32;;;;;;;5.23;4.23;;;;;;;20.97;86.44;98768.47;5153861;27;41441;-79
2023/06/21 03:53:01;;;;;;;4.60;3.87;;;;;;;21.01;86.64;98763.59;5139446;27;42113;-80
2023/06/21 03:55:29;;;;;;;4.27;3.10;;;;;;;21.03;86.21;98778.56;5139223;27;42185;-79
2023/06/21 03:57:56;;;;;;;3.40;3.10;;;;;;;21.05;85.97;98783.78;5139525;27;39364;-79
2023/06/21 04:00:27;;;;;;;3.10;2.80;;;;;;;21.07;85.53;98774.56;5156225;27;42734;-79
2023/06/21 04:02:56;;;;;;;4.67;2.97;;;;;;;21.08;85.44;98776.25;5137845;27;41999;-79
2023/06/21 04:05:24;;;;;;;3.47;3.17;;;;;;;21.15;85.13;98787.19;5137962;27;41293;-80
2023/06/21 04:07:52;;;;;;;3.50;2.90;;;;;;;21.21;85.25;98796.50;5138731;27;40003;-80
2023/06/21 04:10:19;;;;;;;3.50;2.80;;;;;;;21.25;84.83;98792.47;5155764;27;41928;-79
2023/06/21 04:12:47;;;;;;;2.70;2.50;;;;;;;21.32;84.68;98798.88;5137792;27;42040;-78
2023/06/21 04:15:16;;;;;;;4.10;3.00;;;;;;;21.38;84.53;98803.63;5154972;27;43131;-79
2023/06/21 04:17:46;;;;;;;5.77;3.07;;;;;;;21.45;84.51;98804.63;5155337;27;40865;-79
2023/06/21 04:20:15;;;;;;;4.13;3.37;;;;;;;21.40;84.26;98788.94;5137459;27;40690;-78
2023/06/21 04:22:45;;;;;;;3.60;3.03;;;;;;;21.57;84.29;98797.91;5154813;27;43074;-79
2023/06/21 04:25:13;;;;;;;5.03;3.73;;;;;;;21.54;84.00;98781.22;5155288;27;41252;-78
2023/06/21 04:27:40;;;;;;;5.03;3.23;;;;;;;21.77;84.30;98807.34;5155102;27;39150;-79
2023/06/21 04:30:10;;;;;;;5.47;2.97;;;;;;;21.88;84.22;98799.97;5137610;27;40685;-78
2023/06/21 04:32:45;;;;;;;4.27;3.63;;;;;;;21.98;83.93;98800.63;5173592;27;43710;-78
2023/06/21 04:35:15;;;;;;;4.00;3.20;;;;;;;22.15;83.68;98802.31;5171166;27;42067;-78
2023/06/21 04:37:44;;;;;;;4.10;3.70;;;;;;;22.29;83.10;98798.91;5138534;27;40126;-78
2023/06/21 04:40:14;;;;;;;5.73;3.40;;;;;;;22.47;82.88;98796.88;5155948;27;41743;-78
2023/06/21 04:42:43;;;;;;;3.93;3.50;;;;;;;22.54;83.93;98797.00;5174354;27;44877;-78
2023/06/21 04:45:14;;;;;;;5.07;3.90;;;;;;;22.68;83.39;98820.59;5136847;27;41738;-78
2023/06/21 04:47:42;;;;;;;4.10;3.70;;;;;;;22.73;83.45;98833.56;5170780;27;40038;-79
2023/06/21 04:50:11;;;;;;;5.80;4.40;;;;;;;22.78;83.54;98833.91;5141198;27;40964;-78
2023/06/21 04:52:40;;;;;;;6.83;4.33;;;;;;;22.80;83.45;98839.97;5158212;27;42814;-79
2023/06/21 04:55:09;;;;;;;9.07;5.17;;;;;;;22.83;83.34;98839.66;5158028;27;42366;-78
2023/06/21 04:57:36;;;;;;;5.50;5.00;;;;;;;22.76;83.37;98825.13;5158063;27;39731;-78
2023/06/21 05:00:07;;;;;;;11.57;6.63;;;;;;;22.81;83.37;98836.28;5158107;27;41762;-79
2023/06/21 05:02:34;;;;;;;7.73;4.77;;;;;;;22.95;83.27;98845.50;5158432;27;43564;-78
2023/06/21 05:05:02;;;;;;;4.97;4.50;;;;;;;22.96;83.87;98850.75;5158468;27;42946;-78
2023/06/21 05:07:30;;;;;;;7.20;6.07;;;;;;;23.01;83.29;98869.09;5157768;27;40884;-78
2023/06/21 05:09:59;;;;;;;7.17;5.67;;;;;;;23.02;83.72;98882.44;5140851;27;42228;-78
2023/06/21 05:12:27;;;;;;;6.53;5.53;;;;;;;23.07;83.40;98884.63;5157784;27;43514;-79
2023/06/21 05:14:55;;;;;;;9.33;6.47;;;;;;;23.15;83.78;98907.03;5140567;27;42252;-79
2023/06/21 05:17:22;;;;;;;7.07;6.37;;;;;;;23.17;83.58;98904.16;5140747;27;40091;-82
2023/06/21 05:19:50;;;;;;;9.03;8.13;;;;;;;23.16;83.87;98883.56;5135961;27;41863;-80
2023/06/21 05:22:18;;;;;;;11.93;8.43;;;;;;;23.19;83.48;98877.81;5135116;27;42792;-81
2023/06/21 05:24:45;;;;;;;10.60;8.63;;;;;;;23.20;84.00;98879.50;5156839;27;42311;-79
2023/06/21 05:27:24;;;;;;;10.07;7.90;;;;;;;23.13;84.97;98873.09;5154538;27;39497;-84
2023/06/21 05:29:52;;;;;;;8.87;7.63;;;;;;;23.08;84.39;98854.75;5146737;27;40656;-83
2023/06/21 05:32:20;;;;;;;9.50;8.67;;;;;;;23.14;84.30;98854.03;5141829;27;43370;-83
2023/06/21 05:34:48;;;;;;;9.50;8.27;;;;;;;23.20;83.44;98834.41;5162435;27;42796;-86
2023/06/21 05:37:15;;;;;;;8.47;7.70;;;;;;;23.18;83.30;98814.84;5141997;27;39819;-83
2023/06/21 05:39:44;;;;;;;7.90;7.30;;;;;;;23.30;83.77;98823.38;5180784;27;41559;-89
2023/06/21 05:42:12;;;;;;;8.47;7.67;;;;;;;23.22;83.50;98783.75;5155752;27;42538;-83
2023/06/21 05:44:41;;;;;;;10.77;8.90;;;;;;;23.35;83.78;98798.53;5186140;27;42080;-88
2023/06/21 05:47:09;;;;;;;8.40;7.60;;;;;;;23.37;84.44;98800.03;5180151;27;39995;-81
2023/06/21 05:49:36;;;;;;;9.50;8.13;;;;;;;23.41;84.38;98816.72;5179694;27;42803;-82
2023/06/21 05:52:05;;;;;;;11.73;9.00;;;;;;;23.42;84.21;98819.25;5179544;27;42709;-83
2023/06/21 05:54:32;;;;;;;11.40;9.13;;;;;;;23.37;84.49;98829.75;5185919;27;41216;-86
2023/06/21 05:57:00;;;;;;;10.60;9.53;;;;;;;23.32;84.56;98852.94;5169038;27;41465;-87
2023/06/21 05:59:27;;;;;;;11.10;10.00;;;;;;;23.36;83.96;98848.88;5157516;27;40494;-87
2023/06/21 06:01:57;;;;;;;11.10;10.03;;;;;;;23.73;83.29;98881.47;5130267;27;41990;-84
2023/06/21 06:04:24;;;;;;;10.57;9.60;;;;;;;24.01;82.49;98884.47;5136150;27;42420;-84
2023/06/21 06:06:52;;;;;;;9.27;8.37;;;;;;;24.33;82.09;98903.19;5119387;27;38997;-81
2023/06/21 06:09:20;;;;;;;9.63;8.53;;;;;;;24.51;81.36;98900.13;5119067;27;40666;-83
2023/06/21 06:11:47;;;;;;;9.83;8.60;;;;;;;24.69;80.50;98921.47;5136007;27;42524;-84
2023/06/21 06:14:15;;;;;;;12.57;10.53;;;;;;;24.77;79.14;98934.09;5154743;27;42129;-82
2023/06/21 06:16:43;;;;;;;9.97;9.00;;;;;;;24.59;78.98;98894.66;5136273;27;40264;-79
2023/06/21 06:19:12;;;;;;;9.83;8.70;;;;;;;24.77;78.78;98899.72;5136196;27;42758;-83
2023/06/21 06:21:39;;;;;;;11.30;8.40;;;;;;;24.62;78.54;98875.31;5136003;27;42403;-82
2023/06/21 06:24:07;;;;;;;9.57;8.07;;;;;;;24.72;78.82;98896.75;5135849;27;41833;-82
2023/06/21 06:26:35;;;;;;;10.97;8.33;;;;;;;24.69;78.29;98884.41;5136101;27;39093;-84
2023/06/21 06:29:02;;;;;;;9.80;9.00;;;;;;;24.64;78.35;98865.16;5118867;27;41075;-81
2023/06/21 06:31:57;;;;;;;8.40;7.63;;;;;;;24.56;78.78;98857.13;5101807;27;41871;-84
2023/06/21 06:34:27;;;;;;;10.27;9.27;;;;;;;24.59;77.84;98874.88;5119797;27;41213;-85
2023/06/21 06:36:55;;;;;;;9.67;8.67;;;;;;;24.66;77.26;98889.34;5155444;27;40715;-77
2023/06/21 06:39:22;;;;;;;9.63;8.40;;;;;;;24.77;77.29;98901.59;5134211;27;41787;-77
2023/06/21 06:41:50;;;;;;;9.47;8.30;;;;;;;24.85;77.02;98896.09;5154706;27;42795;-76
2023/06/21 06:44:18;;;;;;;9.03;8.10;;;;;;;24.97;77.18;98889.22;5118002;27;42557;-78
2023/06/21 06:46:45;;;;;;;9.50;8.63;;;;;;;25.16;77.13;98887.81;5136173;27;39133;-77
2023/06/21 06:49:14;;;;;;;9.47;8.63;;;;;;;25.35;76.22;98901.59;5112866;27;41519;-76
2023/06/21 06:51:46;;;;;;;11.67;9.47;;;;;;;25.47;75.78;98903.84;5134367;27;41982;-75
2023/06/21 06:54:13;;;;;;;9.93;9.13;;;;;;;25.55;75.40;98923.56;5134866;27;42461;-76
2023/06/21 06:56:41;;;;;;;12.03;10.10;;;;;;;25.54;74.31;98924.59;5117326;27;39030;-75
2023/06/21 06:59:09;;;;;;;10.67;9.60;;;;;;;25.54;72.90;98902.91;5134344;27;41082;-74
2023/06/21 07:01:37;;;;;;;11.03;9.87;;;;;;;25.63;73.12;98899.06;5117170;27;42009;-74
2023/06/21 07:04:05;;;;;;;9.43;8.57;;;;;;;25.75;72.61;98905.69;5134812;27;41345;-77
2023/06/21 07:06:32;;;;;;;10.60;9.17;;;;;;;26.01;72.47;98918.69;5134506;27;38757;-78
2023/06/21 07:09:02;;;;;;;10.87;9.07;;;;;;;26.24;70.24;98918.50;5134574;27;41827;-73
2023/06/21 07:11:30;;;;;;;9.50;8.60;;;;;;;26.37;68.77;98898.81;5134191;27;42731;-77
2023/06/21 07:13:58;;;;;;;9.00;8.10;;;;;;;26.67;68.51;98897.59;5134407;27;42667;-77
2023/06/21 07:16:26;;;;;;;9.57;8.23;;;;;;;26.99;68.40;98917.91;5117537;27;39285;-76
2023/06/21 07:18:53;;;;;;;8.80;7.80;;;;;;;27.29;66.02;98923.97;5096999;27;41377;-77
2023/06/21 07:21:21;;;;;;;10.77;9.67;;;;;;;27.65;64.30;98918.28;5132543;27;42707;-75
2023/06/21 07:23:49;;;;;;;10.10;8.17;;;;;;;27.91;64.03;98909.38;5107571;27;41803;-76
2023/06/21 07:26:18;;;;;;;11.33;8.50;;;;;;;28.07;62.53;98914.41;5134977;27;40803;-76
2023/06/21 07:28:46;;;;;;;8.07;7.33;;;;;;;28.24;61.87;98936.69;5117157;27;42439;-75
2023/06/21 07:31:14;;;;;;;8.70;7.43;;;;;;;28.30;61.79;98926.88;5134465;27;43702;-74
2023/06/21 07:33:41;;;;;;;8.77;6.40;;;;;;;28.38;62.40;98918.50;5134496;27;42265;-75
2023/06/21 07:36:09;;;;;;;8.53;7.73;;;;;;;28.45;62.26;98928.34;5118283;27;38905;-80
2023/06/21 07:38:36;;;;;;;7.67;6.97;;;;;;;28.38;62.45;98929.38;5153757;27;42701;-77
2023/06/21 07:41:04;;;;;;;8.27;6.67;;;;;;;28.30;63.42;98927.72;5135800;27;41612;-80
2023/06/21 07:43:33;;;;;;;7.63;6.93;;;;;;;28.26;62.82;98937.34;5118627;27;40937;-79
2023/06/21 07:46:01;;;;;;;7.37;6.60;;;;;;;28.56;61.68;98945.97;5118172;27;39325;-77
2023/06/21 07:48:29;;;;;;;7.23;6.53;;;;;;;28.75;60.85;98952.47;5117768;27;41574;-79
2023/06/21 07:50:56;;;;;;;7.03;6.37;;;;;;;28.99;59.94;98959.19;5117922;27;42820;-81
2023/06/21 07:53:24;;;;;;;6.67;5.97;;;;;;;29.00;57.17;98971.78;5135476;27;42203;-78
2023/06/21 07:55:51;;;;;;;6.63;6.03;;;;;;;29.58;55.34;98970.84;5135251;27;39838;-76
2023/06/21 07:58:19;;;;;;;8.00;6.87;;;;;;;31.24;51.55;98987.94;5134567;27;40643;-75
2023/06/21 08:00:49;;;;;;;6.57;5.97;;;;;;;32.61;47.70;98991.09;5153302;27;42783;-77
2023/06/21 08:03:19;;;;;;;7.50;6.80;;;;;;;33.77;45.77;98996.69;5130312;27;42321;-84
2023/06/21 08:05:47;;;;;;;6.70;5.97;;;;;;;34.81;44.52;99008.38;5117667;27;39644;-83
2023/06/21 08:08:17;;;;;;;9.10;6.37;;;;;;;36.50;40.96;99029.84;5117040;27;40850;-81
2023/06/21 08:10:45;;;;;;;7.95;5.88;;;;;;;37.95;38.98;99027.72;5152492;27;42960;-84
2023/06/21 08:13:22;;;;;;;6.20;5.60;;;;;;;38.78;36.52;99047.13;5108023;27;41865;-82
2023/06/21 08:19:14;;;;;;;7.65;6.75;;;;;;;39.23;35.21;99023.31;5134146;27;41319;-87
2023/06/21 08:21:41;;;;;;;6.63;6.13;;;;;;;39.17;36.46;99002.28;5117069;27;44410;-86
2023/06/21 08:24:09;;;;;;;7.55;6.85;;;;;;;38.51;36.26;99008.56;5116767;27;41436;-81
2023/06/21 08:26:37;;;;;;;7.18;6.45;;;;;;;38.12;37.48;99010.94;5117237;27;39906;-80
2023/06/21 08:29:29;;;;;;;6.95;6.30;;;;;;;37.62;37.26;98997.66;5117096;27;41758;-86
2023/06/21 08:32:25;;;;;;;7.28;6.57;;;;;;;37.01;38.18;99008.25;5117087;27;42545;-88
2023/06/21 08:34:54;;;;;;;6.25;5.75;;;;;;;36.00;38.86;98970.22;5119021;27;41279;-88
2023/06/21 08:37:25;;;;;;;7.25;6.55;;;;;;;35.38;39.63;98985.34;5118017;27;40025;-82
2023/06/21 08:39:53;;;;;;;9.47;7.20;;;;;;;34.72;41.00;98959.50;5101791;27;40778;-84
2023/06/21 08:42:23;;;;;;;7.57;6.83;;;;;;;34.89;41.25;98990.63;5115911;27;41874;-86
2023/06/21 08:45:09;;;;;;;8.87;6.23;;;;;;;35.02;40.33;98970.19;5138284;27;39867;-85
2023/06/21 08:51:21;;;;;;;7.27;6.63;;;;;;;34.76;41.32;98975.25;5137669;27;43315;-84
2023/06/21 08:53:55;;;;;;;7.63;6.97;;;;;;;34.59;41.04;99012.91;5156433;27;41650;-83
2023/06/21 08:57:01;;;;;;;6.63;6.13;;;;;;;34.29;41.97;98991.16;5138837;27;42980;-88
2023/06/21 08:59:35;;;;;;;7.03;6.43;;;;;;;34.57;41.81;98982.06;5139579;27;40234;-90
2023/06/21 09:02:30;;;;;;;8.13;7.20;;;;;;;35.73;40.84;99018.94;5138626;27;41048;-86
2023/06/21 09:05:04;;;;;;;7.43;6.73;;;;;;;35.69;40.08;98992.97;5138142;27;41454;-86
2023/06/21 09:08:10;;;;;;;8.27;6.97;;;;;;;35.61;40.06;99002.50;5137219;27;42156;-87
2023/06/21 09:14:42;;;;;;;7.47;6.80;;;;;;;35.58;39.81;99041.59;5110357;28;42715;-89
2023/06/21 09:17:17;;;;;;;9.37;6.60;;;;;;;35.58;39.38;99024.22;5076787;27;42417;-88
2023/06/21 09:19:47;;;;;;;6.77;6.10;;;;;;;35.35;39.75;98994.13;5105766;27;42371;-88
2023/06/21 09:22:15;;;;;;;7.27;6.67;;;;;;;35.56;39.25;99056.72;5125890;27;38937;-88
2023/06/21 09:25:12;;;;;;;7.33;6.63;;;;;;;35.05;39.08;99030.25;5098604;27;40861;-86
2023/06/21 09:27:44;;;;;;;10.17;6.70;;;;;;;34.67;39.63;99052.94;5095440;27;42068;-88
2023/06/21 09:30:35;;;;;;;6.50;6.00;;;;;;;34.06;40.73;99018.72;5112096;27;41034;-90
2023/06/21 09:35:48;;;;;;;8.07;7.33;;;;;;;33.52;42.23;99029.88;5140345;27;41057;-85
2023/06/21 09:39:41;;;;;;;6.90;6.27;;;;;;;34.24;41.17;98993.81;5158550;27;44044;-84
2023/06/21 09:45:34;;;;;;;7.63;7.03;;;;;;;37.15;36.22;99080.47;5174875;27;41488;-90
2023/06/21 09:48:01;;;;;;;6.93;6.40;;;;;;;38.35;34.82;99070.50;5142379;27;41470;-89
2023/06/21 09:50:33;;;;;;;7.03;6.53;;;;;;;39.25;33.26;99051.59;5141395;27;42984;-90
2023/06/21 09:53:01;;;;;;;7.10;6.40;;;;;;;40.56;31.52;99097.63;5140791;27;42503;-85
2023/06/21 09:55:37;;;;;;;6.88;6.28;;;;;;;40.89;30.42;99098.84;5140677;27;39996;-90
2023/06/21 09:58:47;;;;;;;7.10;6.50;;;;;;;41.41;30.96;99087.09;5140139;27;40805;-84
2023/06/21 10:01:44;;;;;;;7.85;6.75;;;;;;;41.37;29.18;99055.41;5109036;27;41480;-92
2023/06/21 10:04:15;;;;;;;6.88;6.20;;;;;;;40.69;30.73;99073.94;5055509;28;41315;-81
2023/06/21 10:06:50;;;;;;;7.45;6.85;;;;;;;40.42;30.43;99108.53;5054451;28;40393;-80
2023/06/21 10:09:19;;;;;;;7.30;5.82;;;;;;;39.79;30.68;99110.91;5072669;28;41153;-80
2023/06/21 10:11:49;;;;;;;7.95;6.78;;;;;;;39.38;32.17;99107.28;5072951;28;42591;-79
2023/06/21 10:14:21;;;;;;;7.75;7.05;;;;;;;39.09;32.06;99100.63;5073051;28;42929;-80
2023/06/21 10:16:52;;;;;;;7.25;6.60;;;;;;;38.98;33.11;99098.94;5073422;28;39946;-81
2023/06/21 10:19:22;;;;;;;6.80;6.20;;;;;;;38.77;33.22;99096.13;5056693;28;40693;-81
2023/06/21 10:21:56;;;;;;;7.20;6.70;;;;;;;38.70;33.03;99097.50;5089622;28;42645;-79
2023/06/21 10:24:27;;;;;;;6.88;6.38;;;;;;;38.43;32.41;99105.97;5056923;28;41800;-80
2023/06/21 10:26:57;;;;;;;7.20;6.55;;;;;;;38.02;33.45;99089.16;5056382;28;39132;-80
2023/06/21 10:29:25;;;;;;;6.18;5.68;;;;;;;37.81;34.01;99095.69;5123613;27;42946;-80
2023/06/21 10:32:11;;;;;;;7.57;6.43;;;;;;;37.53;34.16;99087.69;5091285;27;43212;-86
2023/06/21 10:35:29;;;;;;;6.68;6.05;;;;;;;37.19;34.27;99074.19;5099747;27;42306;-90
2023/06/21 10:44:22;;;;;;;6.60;6.03;;;;;;;35.68;36.38;99054.69;5041285;28;42328;-91
2023/06/21 10:50:10;;;;;;;7.50;6.77;;;;;;;35.32;37.43;99077.25;5168846;27;40751;-85
2023/06/21 10:52:42;;;;;;;7.17;6.47;;;;;;;34.91;37.62;99054.50;5157777;27;40868;-84
2023/06/21 10:55:25;;;;;;;7.97;7.37;;;;;;;34.72;37.85;99088.81;5140749;27;41943;-82
2023/06/21 10:57:55;;;;;;;7.73;7.03;;;;;;;34.39;38.42;99079.38;5175870;27;42113;-84
2023/06/21 11:00:26;;;;;;;7.73;7.03;;;;;;;34.19;39.31;99078.94;5140320;27;39708;-85
2023/06/21 11:06:06;;;;;;;7.70;7.10;;;;;;;33.96;39.84;99079.81;5139094;27;20221;-87
2023/06/21 11:11:31;;;;;;;7.47;6.77;;;;;;;33.76;40.64;99066.44;5156967;27;40219;-83
2023/06/21 11:14:04;;;;;;;7.70;7.03;;;;;;;33.51;40.40;99054.84;5139647;27;41041;-86
2023/06/21 11:19:49;;;;;;;8.53;7.73;;;;;;;32.93;41.72;99041.88;5138559;27;42816;-90
2023/06/21 11:22:23;;;;;;;7.57;6.97;;;;;;;32.42;41.64;98984.81;5138700;27;39278;-89
2023/06/21 11:25:13;;;;;;;7.43;6.83;;;;;;;32.66;42.11;99057.88;5138821;27;41719;-89
2023/06/21 11:28:26;;;;;;;7.27;6.70;;;;;;;32.51;43.23;99070.34;5138636;27;41812;-85
2023/06/21 11:31:12;;;;;;;7.23;6.63;;;;;;;32.36;44.02;99060.63;5138777;27;41223;-79
2023/06/21 11:34:03;;;;;;;7.60;7.00;;;;;;;32.14;43.55;99064.91;5139436;27;39622;-82
2023/06/21 11:36:35;;;;;;;6.87;6.37;;;;;;;31.93;44.16;99062.59;5170210;27;41875;-86
2023/06/21 11:39:26;;;;;;;7.13;6.43;;;;;;;31.73;44.67;99058.19;5140052;27;41421;-86
2023/06/21 11:41:59;;;;;;;7.63;7.03;;;;;;;31.55;44.67;99060.88;5156475;27;42672;-85
2023/06/21 11:44:32;;;;;;;7.30;6.70;;;;;;;31.35;45.36;99049.28;5157631;27;39689;-83
2023/06/21 11:47:17;;;;;;;7.73;7.03;;;;;;;31.25;45.45;99059.91;5139992;27;41965;-79
2023/06/21 11:52:55;;;;;;;7.10;6.50;;;;;;;30.83;45.62;99031.38;5138292;27;42159;-88
2023/06/21 11:55:27;;;;;;;9.13;6.97;;;;;;;30.92;46.10;99055.50;5140458;27;40963;-90
2023/06/21 11:58:17;;;;;;;7.83;7.13;;;;;;;30.89;46.47;99061.44;5138446;27;41757;-85
2023/06/21 12:00:49;;;;;;;7.57;6.87;;;;;;;30.69;46.74;99036.09;5140868;27;41705;-89
2023/06/21 12:03:19;;;;;;;6.70;6.10;;;;;;;30.82;46.91;99063.38;5137412;27;41657;-84
2023/06/21 12:06:11;;;;;;;7.67;7.07;;;;;;;30.81;46.65;99058.94;5138305;27;38801;-87
2023/06/21 12:08:39;;;;;;;7.80;7.07;;;;;;;30.80;46.57;99061.91;5134696;27;41878;-80
2023/06/21 12:11:09;;;;;;;7.63;6.90;;;;;;;30.70;45.92;99063.22;5136713;27;43672;-82
2023/06/21 12:13:40;;;;;;;7.60;6.90;;;;;;;30.60;47.00;99045.63;5157730;27;42383;-88
2023/06/21 12:16:09;;;;;;;7.90;7.23;;;;;;;30.66;47.09;99045.59;5155292;27;39247;-81
2023/06/21 12:18:38;;;;;;;7.40;6.90;;;;;;;30.57;47.40;99035.97;5137639;27;40692;-83
2023/06/21 12:21:07;;;;;;;7.77;7.07;;;;;;;30.66;47.55;99050.25;5137435;27;42109;-86
2023/06/21 12:23:34;;;;;;;7.37;6.77;;;;;;;30.59;47.60;99043.97;5155165;27;41593;-85
2023/06/21 12:26:13;;;;;;;7.53;6.83;;;;;;;30.53;48.10;99034.75;5139629;27;39327;-89
2023/06/21 12:29:06;;;;;;;7.53;6.83;;;;;;;30.71;48.60;99056.72;5158027;27;40941;-85
2023/06/21 12:31:34;;;;;;;7.57;6.97;;;;;;;30.68;47.36;99053.56;5175527;27;43057;-81